Time;durP1;ratioP1;P1;durP2;ratioP2;P2;SDS_P1;SDS_P2;PMS_P1;PMS_P2;Temp;Humidity;BMP_temperature;BMP_pressure;BME280_temperature;BME280_humidity;BME280_pressure;Samples;Min_cycle;Max_cycle;Signal;HPM_P1;HPM_P2
2022/10/28 00:00:17;;;;;;;;;9.25;6.50;;;;;21.25;55.58;101253.41;4931390;28;45274;-58
2022/10/28 00:02:43;;;;;;;;;10.25;7.00;;;;;21.23;55.20;101241.97;4941561;28;45444;-58
2022/10/28 00:05:08;;;;;;;;;9.75;8.00;;;;;21.25;55.04;101244.53;4941472;28;45232;-58
2022/10/28 00:07:34;;;;;;;;;6.00;5.00;;;;;21.22;55.11;101237.56;4941324;28;46272;-58
2022/10/28 00:09:59;;;;;;;;;7.50;6.50;;;;;21.23;55.42;101238.41;4941503;28;45404;-58
2022/10/28 00:12:24;;;;;;;;;8.50;6.75;;;;;21.25;55.40;101239.19;4941201;28;45318;-58
2022/10/28 00:14:50;;;;;;;;;8.25;7.50;;;;;21.23;55.11;101241.97;4940187;28;45781;-58
2022/10/28 00:17:15;;;;;;;;;6.25;6.00;;;;;21.23;55.28;101247.31;4941180;28;45369;-58
2022/10/28 00:19:40;;;;;;;;;9.00;6.75;;;;;21.21;55.75;101251.00;4940910;28;51461;-58
2022/10/28 00:22:06;;;;;;;;;8.75;6.00;;;;;21.18;55.36;101248.47;4940098;28;45326;-58
2022/10/28 00:24:31;;;;;;;;;5.75;5.75;;;;;21.17;55.59;101244.06;4941398;28;45355;-58
2022/10/28 00:26:56;;;;;;;;;4.00;4.00;;;;;21.15;55.20;101253.97;4940808;28;46033;-58
2022/10/28 00:29:23;;;;;;;;;9.75;7.00;;;;;21.11;55.65;101245.25;4941204;28;45698;-58
2022/10/28 00:31:49;;;;;;;;;6.00;6.00;;;;;21.08;55.88;101248.06;4941256;28;45270;-58
2022/10/28 00:34:17;;;;;;;;;7.75;5.50;;;;;21.04;55.98;101246.50;4941255;28;45396;-58
2022/10/28 00:36:44;;;;;;;;;10.00;7.25;;;;;20.99;55.44;101240.53;4940768;28;46238;-58
2022/10/28 00:39:18;;;;;;;;;5.25;5.25;;;;;21.04;55.91;101243.81;4941024;28;45394;-58
2022/10/28 00:41:50;;;;;;;;;5.75;5.25;;;;;20.99;55.33;101244.03;4940861;28;45310;-58
2022/10/28 00:44:47;;;;;;;;;8.00;5.00;;;;;21.00;55.47;101244.94;4940788;28;45467;-58
2022/10/28 00:47:21;;;;;;;;;11.00;7.75;;;;;20.97;55.74;101248.63;4930639;28;46913;-58
2022/10/28 00:49:50;;;;;;;;;6.00;5.25;;;;;20.96;55.98;101246.88;4939616;28;45542;-59
2022/10/28 00:52:20;;;;;;;;;11.00;6.75;;;;;20.95;55.35;101253.16;4941050;28;45386;-58
2022/10/28 00:54:46;;;;;;;;;5.75;5.75;;;;;20.96;55.46;101254.03;4940712;28;45179;-58
2022/10/28 00:57:17;;;;;;;;;6.25;2.25;;;;;20.91;55.51;101244.44;4940312;28;46275;-58
2022/10/28 00:59:47;;;;;;;;;7.25;6.00;;;;;20.92;55.32;101245.31;4927724;28;45455;-58
2022/10/28 01:02:13;;;;;;;;;5.25;5.25;;;;;20.91;55.79;101246.25;4941054;28;45299;-58
2022/10/28 01:04:38;;;;;;;;;9.25;8.00;;;;;20.91;55.94;101239.09;4940492;28;45266;-58
2022/10/28 01:07:05;;;;;;;;;7.25;4.25;;;;;20.89;55.38;101234.75;4940725;28;46427;-58
2022/10/28 01:09:30;;;;;;;;;6.00;4.25;;;;;20.86;55.66;101235.78;4943689;28;45337;-58
2022/10/28 01:12:26;;;;;;;;;10.00;5.75;;;;;20.88;56.01;101241.03;4943963;28;45442;-58
2022/10/28 01:15:21;;;;;;;;;6.00;5.00;;;;;20.84;55.88;101237.69;4934070;28;45271;-58
2022/10/28 01:17:58;;;;;;;;;6.00;5.25;;;;;20.81;55.79;101237.81;4905687;28;46248;-58
2022/10/28 01:20:26;;;;;;;;;7.50;3.75;;;;;20.81;55.95;101236.97;4939064;28;45477;-58
2022/10/28 01:23:02;;;;;;;;;8.00;5.00;;;;;20.81;55.88;101232.47;4944036;28;45311;-59
2022/10/28 01:25:33;;;;;;;;;9.50;6.25;;;;;20.77;55.89;101231.75;4943665;28;45322;-59
2022/10/28 01:28:24;;;;;;;;;5.75;5.75;;;;;20.76;56.14;101232.69;4943412;28;45362;-59
2022/10/28 01:31:14;;;;;;;;;7.00;5.50;;;;;20.75;55.87;101230.09;4932336;28;45335;-59
2022/10/28 01:34:07;;;;;;;;;11.25;5.00;;;;;20.73;55.90;101226.66;4943676;28;45237;-58
2022/10/28 01:36:51;;;;;;;;;5.75;5.75;;;;;20.71;55.91;101229.38;4943342;28;45306;-58
2022/10/28 01:39:41;;;;;;;;;8.25;6.50;;;;;20.70;55.71;101230.28;4943343;28;46366;-59
2022/10/28 01:42:31;;;;;;;;;6.50;5.25;;;;;20.69;55.99;101225.91;4931871;28;45282;-59
2022/10/28 01:45:05;;;;;;;;;6.00;3.25;;;;;20.66;55.52;101223.38;4943426;28;45350;-58
2022/10/28 01:47:41;;;;;;;;;6.00;5.25;;;;;20.66;55.97;101219.84;4942057;28;45479;-59
2022/10/28 01:50:24;;;;;;;;;9.25;8.00;;;;;20.66;56.18;101218.03;4931115;28;45726;-59
2022/10/28 01:52:54;;;;;;;;;7.75;5.00;;;;;20.63;56.18;101207.53;4943186;28;45330;-59
2022/10/28 01:55:25;;;;;;;;;6.00;5.25;;;;;20.63;56.20;101207.53;4943539;28;45325;-59
2022/10/28 01:57:56;;;;;;;;;8.25;4.00;;;;;20.61;55.60;101206.72;4940368;28;45274;-59
2022/10/28 02:00:21;;;;;;;;;8.75;6.50;;;;;20.59;56.17;101197.91;4932109;28;48433;-59
2022/10/28 02:02:49;;;;;;;;;8.25;6.00;;;;;20.62;56.11;101208.47;4943010;28;46156;-59
2022/10/28 02:05:46;;;;;;;;;6.50;6.25;;;;;20.60;55.75;101199.66;4943285;28;45349;-59
2022/10/28 02:08:17;;;;;;;;;7.50;5.00;;;;;20.60;55.83;101207.66;4931123;28;45337;-59
2022/10/28 02:10:54;;;;;;;;;6.75;6.00;;;;;20.59;56.23;101201.47;4942749;28;46254;-59
2022/10/28 02:13:25;;;;;;;;;5.00;5.00;;;;;20.57;56.10;101197.16;4942841;28;45326;-59
2022/10/28 02:16:07;;;;;;;;;7.50;5.25;;;;;20.58;56.25;101209.56;4943023;28;45320;-59
2022/10/28 02:18:45;;;;;;;;;8.75;7.00;;;;;20.55;55.67;101204.34;4942697;28;45314;-59
2022/10/28 02:21:33;;;;;;;;;7.00;7.00;;;;;20.55;56.22;101201.69;4931078;28;45427;-59
2022/10/28 02:24:37;;;;;;;;;7.25;4.25;;;;;20.52;55.60;101201.84;4932689;28;45465;-59
2022/10/28 02:27:29;;;;;;;;;7.25;6.75;;;;;20.46;56.21;101195.88;4939371;28;45227;-59
2022/10/28 02:30:06;;;;;;;;;5.75;5.50;;;;;20.47;55.71;101199.41;4942805;28;45356;-59
2022/10/28 02:32:37;;;;;;;;;7.25;5.00;;;;;20.45;56.14;101195.91;4942818;28;45248;-59
2022/10/28 02:35:07;;;;;;;;;8.75;6.00;;;;;20.43;56.19;101188.00;4942545;28;45361;-59
2022/10/28 02:37:36;;;;;;;;;8.25;3.75;;;;;20.39;55.86;101183.75;4942914;28;45168;-59
2022/10/28 02:40:08;;;;;;;;;7.75;6.50;;;;;20.39;56.55;101190.88;4942540;28;45576;-59
2022/10/28 02:42:37;;;;;;;;;6.25;6.00;;;;;20.38;56.12;101189.19;4942296;28;46417;-59
2022/10/28 02:45:15;;;;;;;;;9.75;6.00;;;;;20.34;56.37;101192.91;4942303;28;45247;-59
2022/10/28 02:47:48;;;;;;;;;13.00;7.00;;;;;20.32;56.15;101182.31;4942485;28;45248;-59
2022/10/28 02:50:19;;;;;;;;;9.75;5.75;;;;;20.31;56.26;101175.25;4942489;28;45407;-59
2022/10/28 02:52:50;;;;;;;;;9.25;8.25;;;;;20.32;56.21;101176.13;4941077;28;45975;-59
2022/10/28 02:55:17;;;;;;;;;8.25;6.75;;;;;20.30;56.09;101182.41;4942500;28;45313;-59
2022/10/28 02:57:48;;;;;;;;;7.25;6.25;;;;;20.28;55.97;101181.59;4940608;28;45345;-59
2022/10/28 03:00:23;;;;;;;;;5.25;5.25;;;;;20.29;55.91;101180.66;4931644;28;45465;-59
2022/10/28 03:02:49;;;;;;;;;6.25;5.00;;;;;20.29;56.58;101193.16;4942257;28;45393;-59
2022/10/28 03:05:15;;;;;;;;;3.75;3.75;;;;;20.27;56.08;101190.53;4940874;28;45289;-59
2022/10/28 03:07:40;;;;;;;;;8.75;6.00;;;;;20.26;55.81;101195.94;4942365;28;45393;-59
2022/10/28 03:10:06;;;;;;;;;4.25;4.00;;;;;20.26;55.98;101187.94;4942382;28;45323;-59
2022/10/28 03:12:32;;;;;;;;;8.75;5.50;;;;;20.25;56.43;101186.22;4941553;28;46032;-59
2022/10/28 03:14:57;;;;;;;;;4.25;4.25;;;;;20.27;55.75;101176.34;4942371;28;45251;-59
2022/10/28 03:17:22;;;;;;;;;9.25;7.00;;;;;20.27;56.34;101184.34;4941947;28;45394;-59
2022/10/28 03:19:48;;;;;;;;;8.50;6.50;;;;;20.26;56.19;101177.28;4942066;28;45170;-59
2022/10/28 03:22:13;;;;;;;;;7.25;6.75;;;;;20.23;56.26;101167.63;4941953;28;46294;-59
2022/10/28 03:24:38;;;;;;;;;8.25;7.00;;;;;20.24;56.32;101158.69;4942116;28;45256;-59
2022/10/28 03:27:04;;;;;;;;;6.75;5.25;;;;;20.25;56.28;101160.41;4941602;28;45180;-59
2022/10/28 03:29:29;;;;;;;;;10.00;6.75;;;;;20.25;55.83;101156.84;4942177;28;45382;-59
2022/10/28 03:31:54;;;;;;;;;8.00;6.50;;;;;20.23;56.28;101154.28;4941454;28;45886;-59
2022/10/28 03:34:19;;;;;;;;;8.25;7.75;;;;;20.22;56.22;101155.19;4942114;28;47402;-59
2022/10/28 03:36:45;;;;;;;;;9.00;7.00;;;;;20.24;56.42;101156.00;4941761;28;45564;-59
2022/10/28 03:39:10;;;;;;;;;6.50;5.50;;;;;20.26;55.79;101162.16;4940742;28;45290;-59
2022/10/28 03:41:35;;;;;;;;;8.25;7.00;;;;;20.27;55.79;101150.50;4941426;28;45334;-60
2022/10/28 03:44:01;;;;;;;;;5.75;4.50;;;;;20.27;55.80;101144.31;4941628;28;45330;-59
2022/10/28 03:46:26;;;;;;;;;6.50;6.50;;;;;20.27;56.14;101155.84;4940239;28;45330;-59
2022/10/28 03:48:51;;;;;;;;;7.75;6.00;;;;;20.29;56.15;101153.97;4941477;28;49013;-60
2022/10/28 03:51:17;;;;;;;;;6.50;6.00;;;;;20.27;55.89;101150.50;4928550;28;45346;-59
2022/10/28 03:53:42;;;;;;;;;7.50;6.00;;;;;20.28;55.97;101148.72;4941712;28;45352;-59
2022/10/28 03:56:12;;;;;;;;;5.00;5.00;;;;;20.24;56.06;101148.00;4941621;28;45415;-59
2022/10/28 03:58:37;;;;;;;;;4.00;4.00;;;;;20.26;55.80;101151.47;4936759;28;45366;-59
2022/10/28 04:01:03;;;;;;;;;9.25;6.00;;;;;20.26;56.27;101161.25;4936893;28;48973;-60
2022/10/28 04:03:28;;;;;;;;;7.25;5.75;;;;;20.25;56.24;101156.84;4941736;28;45183;-59
2022/10/28 04:05:53;;;;;;;;;7.25;6.50;;;;;20.24;55.84;101145.34;4941588;28;45532;-59
2022/10/28 04:08:20;;;;;;;;;6.25;4.50;;;;;20.24;56.26;101152.47;4941670;28;45437;-59
2022/10/28 04:10:45;;;;;;;;;5.00;5.00;;;;;20.21;56.17;101148.13;4941167;28;46206;-59
2022/10/28 04:13:11;;;;;;;;;4.00;3.25;;;;;20.20;56.09;101149.09;4941084;28;45369;-59
2022/10/28 04:15:37;;;;;;;;;5.25;5.00;;;;;20.18;56.02;101150.13;4941358;28;45340;-60
2022/10/28 04:18:03;;;;;;;;;6.00;4.75;;;;;20.17;56.13;101151.91;4941428;28;45478;-59
2022/10/28 04:20:29;;;;;;;;;7.50;5.50;;;;;20.16;55.95;101166.16;4941054;28;46244;-60
2022/10/28 04:22:54;;;;;;;;;9.50;6.75;;;;;20.12;55.83;101151.25;4941571;28;45172;-59
2022/10/28 04:25:26;;;;;;;;;9.00;5.25;;;;;20.13;55.74;101151.16;4939838;28;45284;-59
2022/10/28 04:27:51;;;;;;;;;6.50;5.00;;;;;20.09;56.13;101152.28;4941057;28;45543;-59
2022/10/28 04:30:17;;;;;;;;;9.75;8.00;;;;;20.09;55.55;101152.28;4941097;28;45297;-59
2022/10/28 04:32:43;;;;;;;;;6.75;6.75;;;;;20.05;55.90;101148.03;4940040;28;45334;-59
2022/10/28 04:35:10;;;;;;;;;8.00;6.00;;;;;20.09;56.34;101143.41;4939987;28;45361;-59
2022/10/28 04:37:35;;;;;;;;;7.75;6.25;;;;;20.09;55.71;101148.75;4941163;28;45441;-59
2022/10/28 04:40:01;;;;;;;;;7.00;5.25;;;;;20.07;55.51;101159.47;4939561;28;46240;-59
2022/10/28 04:42:27;;;;;;;;;7.75;6.75;;;;;20.06;56.15;101146.22;4941321;28;45297;-59
2022/10/28 04:44:52;;;;;;;;;5.50;5.00;;;;;20.05;55.83;101155.16;4944521;28;45175;-59
2022/10/28 04:47:17;;;;;;;;;8.25;7.00;;;;;20.04;56.03;101145.44;4944193;28;45414;-60
2022/10/28 04:49:43;;;;;;;;;7.75;5.50;;;;;20.03;55.74;101138.38;4944241;28;45214;-59
2022/10/28 04:52:09;;;;;;;;;5.75;4.75;;;;;20.03;55.68;101143.69;4944528;28;45257;-59
2022/10/28 04:54:34;;;;;;;;;10.75;6.75;;;;;20.01;56.05;101135.75;4944381;28;45421;-59
2022/10/28 04:57:00;;;;;;;;;11.50;6.25;;;;;20.01;56.11;101141.09;4943572;28;48115;-59
2022/10/28 04:59:25;;;;;;;;;10.25;7.50;;;;;19.98;55.70;101144.75;4931110;28;46115;-59
2022/10/28 05:01:51;;;;;;;;;9.75;6.00;;;;;19.97;56.08;101142.19;4944388;28;45298;-59
2022/10/28 05:04:16;;;;;;;;;7.50;6.75;;;;;19.98;55.73;101146.56;4942529;28;46775;-59
2022/10/28 05:06:42;;;;;;;;;9.75;7.00;;;;;19.95;56.33;101138.75;4944230;28;45465;-59
2022/10/28 05:09:08;;;;;;;;;12.00;8.00;;;;;19.94;56.24;101140.53;4943671;28;45435;-59
2022/10/28 05:11:33;;;;;;;;;10.50;8.25;;;;;19.92;55.70;101149.53;4943895;28;45285;-59
2022/10/28 05:13:58;;;;;;;;;7.75;4.75;;;;;19.90;56.21;101156.72;4943726;28;45329;-60
2022/10/28 05:16:23;;;;;;;;;8.00;8.00;;;;;19.90;55.87;101146.94;4943879;28;47536;-60
2022/10/28 05:18:49;;;;;;;;;10.25;7.00;;;;;19.88;56.14;101151.47;4943628;28;45469;-60
2022/10/28 05:21:15;;;;;;;;;10.75;7.00;;;;;19.87;55.74;101151.56;4944034;28;45281;-60
2022/10/28 05:23:40;;;;;;;;;6.75;6.75;;;;;19.88;55.97;101151.47;4943830;28;45176;-60
2022/10/28 05:26:06;;;;;;;;;5.75;5.25;;;;;19.86;55.70;101150.69;4943823;28;45332;-60
2022/10/28 05:28:31;;;;;;;;;9.75;7.00;;;;;19.84;56.29;101149.91;4943331;28;45260;-60
2022/10/28 05:30:56;;;;;;;;;10.75;8.75;;;;;19.84;56.22;101149.03;4943796;28;49242;-60
2022/10/28 05:33:22;;;;;;;;;28.00;19.50;;;;;19.74;56.14;101133.41;4943569;28;45667;-60
2022/10/28 05:35:47;;;;;;;;;4.50;4.50;;;;;19.81;55.91;101145.53;4943864;28;45195;-60
2022/10/28 05:38:13;;;;;;;;;12.75;8.25;;;;;19.80;55.73;101145.63;4943540;28;46272;-58
2022/10/28 05:40:38;;;;;;;;;9.00;6.75;;;;;19.80;55.77;101150.94;4943633;28;45172;-58
2022/10/28 05:43:04;;;;;;;;;7.25;6.25;;;;;19.78;55.76;101143.00;4943374;28;45200;-60
2022/10/28 05:45:29;;;;;;;;;9.00;7.00;;;;;19.79;56.16;101146.53;4943885;28;45576;-61
2022/10/28 05:47:55;;;;;;;;;7.50;7.00;;;;;19.77;55.94;101149.28;4941851;28;46171;-62
2022/10/28 05:50:21;;;;;;;;;13.00;10.00;;;;;19.78;55.76;101151.00;4943529;28;45329;-61
2022/10/28 05:52:51;;;;;;;;;7.25;7.25;;;;;19.77;56.24;101149.28;4943279;28;45402;-60
2022/10/28 05:55:18;;;;;;;;;4.75;4.75;;;;;19.78;55.73;101144.81;4943488;28;45217;-62
2022/10/28 05:57:49;;;;;;;;;8.50;6.00;;;;;19.76;55.79;101144.00;4941266;28;45247;-62
2022/10/28 06:00:15;;;;;;;;;9.25;6.25;;;;;19.77;55.82;101154.63;4932617;28;45354;-60
2022/10/28 06:02:41;;;;;;;;;7.50;6.75;;;;;19.75;55.87;101148.50;4943125;28;45262;-61
2022/10/28 06:05:09;;;;;;;;;7.00;6.50;;;;;19.72;56.20;101150.44;4943135;28;45176;-61
2022/10/28 06:07:35;;;;;;;;;7.00;7.00;;;;;19.73;56.02;101149.50;4943098;28;45291;-67
2022/10/28 06:10:01;;;;;;;;;10.00;7.00;;;;;19.71;56.12;101144.25;4943045;28;45358;-66
2022/10/28 06:12:27;;;;;;;;;9.50;8.00;;;;;19.73;55.71;101150.34;4942822;28;45261;-67
2022/10/28 06:14:52;;;;;;;;;5.50;5.50;;;;;19.72;56.15;101150.44;4943044;28;45402;-67
2022/10/28 06:17:17;;;;;;;;;10.75;8.75;;;;;19.72;55.75;101156.66;4942758;28;46099;-66
2022/10/28 06:19:43;;;;;;;;;10.50;7.50;;;;;19.73;56.12;101163.69;4943147;28;45311;-66
2022/10/28 06:22:08;;;;;;;;;8.00;6.00;;;;;19.70;56.22;101153.16;4942834;28;45347;-62
2022/10/28 06:24:33;;;;;;;;;8.50;8.00;;;;;19.71;55.81;101154.91;4942906;28;45450;-61
2022/10/28 06:26:59;;;;;;;;;12.00;7.50;;;;;19.71;55.78;101168.25;4942429;28;45320;-61
2022/10/28 06:29:24;;;;;;;;;9.75;7.75;;;;;19.67;56.29;101169.28;4942992;28;45314;-61
2022/10/28 06:31:50;;;;;;;;;11.75;7.00;;;;;19.66;55.74;101178.25;4942744;28;45200;-61
2022/10/28 06:34:15;;;;;;;;;9.50;7.50;;;;;19.60;56.30;101171.38;4942922;28;45477;-56
2022/10/28 06:36:40;;;;;;;;;14.75;7.00;;;;;19.61;55.99;101178.44;4942149;28;53759;-59
2022/10/28 06:39:06;;;;;;;;;8.50;7.00;;;;;19.61;55.84;101183.78;4940489;28;45441;-60
2022/10/28 06:41:31;;;;;;;;;9.50;9.50;;;;;19.60;56.02;101181.19;4942623;28;45306;-60
2022/10/28 06:43:56;;;;;;;;;7.50;5.75;;;;;19.57;56.13;101179.53;4942638;28;45316;-60
2022/10/28 06:46:22;;;;;;;;;8.25;6.00;;;;;19.55;56.10;101191.19;4941284;28;47068;-60
2022/10/28 06:48:47;;;;;;;;;10.50;7.50;;;;;19.54;55.89;101192.97;4942538;28;45317;-59
2022/10/28 06:51:13;;;;;;;;;9.00;7.00;;;;;19.55;55.69;101204.53;4941310;28;45252;-60
2022/10/28 06:53:38;;;;;;;;;11.75;9.50;;;;;19.55;56.33;101201.84;4942651;28;45354;-60
2022/10/28 06:56:04;;;;;;;;;9.50;7.00;;;;;19.54;55.72;101200.13;4942195;28;45272;-60
2022/10/28 06:58:29;;;;;;;;;9.25;8.50;;;;;19.53;55.87;101203.72;4941938;28;45267;-60
2022/10/28 07:00:55;;;;;;;;;9.50;6.75;;;;;19.52;55.93;101218.84;4942463;28;45374;-59
2022/10/28 07:03:20;;;;;;;;;9.75;8.00;;;;;19.51;55.83;101221.56;4942455;28;45435;-60
2022/10/28 07:05:48;;;;;;;;;7.75;6.00;;;;;19.49;55.79;101219.81;4941515;28;46496;-60
2022/10/28 07:08:13;;;;;;;;;11.00;8.00;;;;;19.46;56.13;101219.97;4942392;28;45342;-60
2022/10/28 07:10:39;;;;;;;;;10.00;7.00;;;;;19.48;56.46;101223.44;4942026;28;45547;-60
2022/10/28 07:13:04;;;;;;;;;6.50;6.00;;;;;19.44;55.84;101224.50;4942394;28;45279;-60
2022/10/28 07:15:30;;;;;;;;;12.25;9.25;;;;;19.46;55.88;101235.13;4942112;28;45235;-60
2022/10/28 07:17:57;;;;;;;;;17.00;11.75;;;;;19.46;55.62;101251.94;4942392;28;45267;-60
2022/10/28 07:20:25;;;;;;;;;11.50;11.50;;;;;19.46;56.03;101241.28;4942127;28;45255;-59
2022/10/28 07:23:00;;;;;;;;;12.50;9.75;;;;;19.45;56.01;101247.56;4942271;28;45366;-60
2022/10/28 07:25:28;;;;;;;;;10.75;10.50;;;;;19.46;55.79;101240.44;4940405;28;48402;-60
2022/10/28 07:27:55;;;;;;;;;9.75;9.00;;;;;19.45;56.11;101246.69;4941801;28;45269;-60
2022/10/28 07:30:21;;;;;;;;;10.50;6.75;;;;;19.46;55.77;101251.94;4942151;28;45496;-59
2022/10/28 07:32:47;;;;;;;;;13.25;10.50;;;;;19.45;55.80;101247.56;4941992;28;45619;-60
2022/10/28 07:35:12;;;;;;;;;6.50;6.50;;;;;19.44;56.30;101258.28;4942166;28;45156;-60
2022/10/28 07:37:38;;;;;;;;;10.00;6.50;;;;;19.44;55.86;101261.81;4941852;28;45207;-60
2022/10/28 07:40:05;;;;;;;;;11.25;8.75;;;;;19.46;55.83;101265.28;4942104;28;45223;-60
2022/10/28 07:42:32;;;;;;;;;10.50;9.25;;;;;19.45;55.74;101266.22;4941463;28;45484;-60
2022/10/28 07:44:57;;;;;;;;;10.25;8.25;;;;;19.45;55.65;101260.88;4941665;28;45437;-59
2022/10/28 07:47:23;;;;;;;;;8.75;6.50;;;;;19.47;56.16;101263.47;4941618;28;45423;-59
2022/10/28 07:49:48;;;;;;;;;7.25;6.25;;;;;19.52;55.79;101276.59;4941842;28;45308;-59
2022/10/28 07:52:13;;;;;;;;;8.00;6.75;;;;;19.52;56.13;101271.28;4941939;28;45348;-59
2022/10/28 07:54:38;;;;;;;;;7.50;7.50;;;;;19.56;56.24;101279.06;4941786;28;45408;-60
2022/10/28 07:57:04;;;;;;;;;8.50;7.25;;;;;19.56;56.24;101288.84;4941334;28;45226;-61
2022/10/28 07:59:29;;;;;;;;;12.25;6.00;;;;;19.59;56.23;101288.75;4941913;28;45243;-59
2022/10/28 08:01:54;;;;;;;;;8.50;6.75;;;;;19.59;56.01;101307.41;4941723;28;45605;-59
2022/10/28 08:04:20;;;;;;;;;11.50;7.75;;;;;19.59;56.24;101294.06;4940072;28;46034;-59
2022/10/28 08:06:45;;;;;;;;;9.50;7.50;;;;;19.59;55.73;101310.06;4941499;28;45239;-60
2022/10/28 08:09:10;;;;;;;;;8.25;7.00;;;;;19.63;55.90;101306.31;4941595;28;45289;-61
2022/10/28 08:11:36;;;;;;;;;11.00;9.75;;;;;19.67;56.23;101309.72;4941576;28;45419;-60
2022/10/28 08:14:01;;;;;;;;;9.50;8.00;;;;;19.70;56.08;101307.81;4941115;28;46158;-60
2022/10/28 08:16:27;;;;;;;;;6.50;6.25;;;;;19.74;56.25;101313.88;4941416;28;45248;-60
2022/10/28 08:18:54;;;;;;;;;9.25;7.75;;;;;19.76;55.99;101315.53;4943843;28;45273;-60
2022/10/28 08:21:19;;;;;;;;;9.50;8.25;;;;;19.80;55.97;101310.94;4943662;28;45405;-60
2022/10/28 08:23:45;;;;;;;;;9.25;8.00;;;;;19.84;56.09;101306.38;4944431;28;46261;-60
2022/10/28 08:26:12;;;;;;;;;11.00;6.50;;;;;19.86;56.23;101299.16;4944788;28;45274;-60
2022/10/28 08:28:38;;;;;;;;;10.75;10.75;;;;;19.86;56.02;101292.03;4944527;28;45357;-60
2022/10/28 08:31:07;;;;;;;;;10.75;8.75;;;;;19.92;55.76;101313.09;4944702;28;45317;-60
2022/10/28 08:33:33;;;;;;;;;8.00;7.00;;;;;19.96;56.10;101319.13;4944395;28;47109;-60
2022/10/28 08:35:58;;;;;;;;;14.75;11.00;;;;;19.95;55.66;101325.44;4944709;28;45545;-60
2022/10/28 08:38:24;;;;;;;;;15.00;11.00;;;;;20.04;55.94;101338.34;4944725;28;45166;-60
2022/10/28 08:41:19;;;;;;;;;10.75;7.50;;;;;20.07;55.97;101346.19;4944598;28;45237;-59
2022/10/28 08:44:02;;;;;;;;;8.75;8.00;;;;;20.04;56.16;101341.00;4944199;28;46261;-59
2022/10/28 08:46:36;;;;;;;;;8.50;8.50;;;;;20.05;55.51;101333.88;4944316;28;45214;-60
2022/10/28 08:49:07;;;;;;;;;9.75;7.75;;;;;20.11;55.81;101331.81;4944261;28;45264;-60
2022/10/28 08:51:37;;;;;;;;;8.50;5.75;;;;;20.11;55.88;101339.81;4944547;28;45295;-60
2022/10/28 08:54:14;;;;;;;;;16.50;10.50;;;;;20.16;56.05;101344.91;4944139;28;46306;-60
2022/10/28 08:56:44;;;;;;;;;7.50;6.50;;;;;20.20;55.69;101332.31;4944260;28;45556;-60
2022/10/28 08:59:20;;;;;;;;;14.50;10.50;;;;;20.21;55.46;101340.25;4941874;28;45331;-60
2022/10/28 09:01:49;;;;;;;;;11.00;8.50;;;;;20.24;55.73;101342.78;4944317;28;45371;-60
2022/10/28 09:04:32;;;;;;;;;11.25;9.25;;;;;20.29;55.67;101350.59;4943717;28;45370;-60
2022/10/28 09:06:58;;;;;;;;;17.00;12.00;;;;;20.32;55.86;101355.78;4943975;28;45308;-60
2022/10/28 09:09:23;;;;;;;;;10.50;8.75;;;;;20.38;55.54;101350.16;4944233;28;45440;-60
2022/10/28 09:12:09;;;;;;;;;10.75;9.75;;;;;20.43;55.23;101352.63;4943792;28;45247;-60
2022/10/28 09:14:54;;;;;;;;;9.00;8.00;;;;;20.50;55.68;101358.53;4933144;28;45479;-62
2022/10/28 09:17:43;;;;;;;;;9.00;7.25;;;;;20.54;55.15;101362.78;4939206;28;45371;-60
2022/10/28 09:20:11;;;;;;;;;14.75;12.00;;;;;20.60;55.43;101367.84;4939930;28;45300;-60
2022/10/28 09:22:52;;;;;;;;;8.50;6.75;;;;;20.63;55.18;101371.25;4943980;28;45472;-60
2022/10/28 09:25:41;;;;;;;;;13.00;9.00;;;;;20.71;55.15;101359.38;4943575;28;46322;-60
2022/10/28 09:28:18;;;;;;;;;14.75;8.25;;;;;20.77;55.19;101369.78;4943378;28;45468;-60
2022/10/28 09:30:49;;;;;;;;;11.25;9.50;;;;;20.77;55.17;101367.97;4943966;28;45286;-60
2022/10/28 09:33:50;;;;;;;;;8.25;8.25;;;;;20.87;55.13;101380.91;4943718;28;45249;-60
2022/10/28 09:36:39;;;;;;;;;10.50;8.50;;;;;20.92;54.72;101389.56;4943571;28;45392;-60
2022/10/28 09:39:14;;;;;;;;;12.00;9.00;;;;;21.00;54.92;101390.03;4943688;28;45306;-60
2022/10/28 09:41:42;;;;;;;;;14.50;10.00;;;;;21.05;54.64;101385.34;4942315;28;45461;-60
2022/10/28 09:44:16;;;;;;;;;9.75;7.25;;;;;21.14;54.75;101383.16;4943236;28;45430;-60
2022/10/28 09:46:47;;;;;;;;;12.25;10.00;;;;;21.20;54.74;101391.75;4943609;28;46666;-60
2022/10/28 09:49:19;;;;;;;;;13.00;8.00;;;;;21.29;54.55;101414.50;4943114;28;45334;-60
2022/10/28 09:51:44;;;;;;;;;9.75;7.00;;;;;21.35;54.72;101419.53;4943760;28;45479;-60
2022/10/28 09:54:11;;;;;;;;;9.00;6.25;;;;;21.41;54.57;101419.25;4943275;28;45318;-60
2022/10/28 09:56:38;;;;;;;;;12.00;9.00;;;;;21.42;54.81;101412.97;4943263;28;46263;-60
2022/10/28 09:59:03;;;;;;;;;8.50;6.25;;;;;21.52;54.81;101409.81;4942779;28;45393;-60
2022/10/28 10:01:32;;;;;;;;;10.00;9.00;;;;;21.56;54.25;101417.66;4943412;28;45342;-60
2022/10/28 10:03:58;;;;;;;;;7.00;6.00;;;;;21.60;54.45;101405.00;4941748;28;45287;-60
2022/10/28 10:06:32;;;;;;;;;8.00;6.75;;;;;21.58;54.43;101386.38;4942989;28;46219;-60
2022/10/28 10:08:58;;;;;;;;;8.00;8.00;;;;;21.64;54.53;101393.19;4943177;28;45178;-60
2022/10/28 10:11:27;;;;;;;;;12.25;9.75;;;;;21.70;54.79;101397.38;4943118;28;45308;-60
2022/10/28 10:13:56;;;;;;;;;10.75;10.50;;;;;21.77;54.14;101408.63;4942890;28;45314;-60
2022/10/28 10:16:31;;;;;;;;;10.75;9.50;;;;;21.80;54.42;101405.78;4942943;28;46288;-60
2022/10/28 10:19:00;;;;;;;;;11.50;10.00;;;;;21.84;54.16;101426.09;4942777;28;45271;-60
2022/10/28 10:21:46;;;;;;;;;8.25;6.75;;;;;21.89;54.68;101432.94;4941865;28;45350;-60
2022/10/28 10:24:31;;;;;;;;;11.25;8.50;;;;;21.96;54.34;101438.84;4942776;28;45458;-60
2022/10/28 10:27:02;;;;;;;;;12.00;9.25;;;;;21.98;54.28;101434.28;4942102;28;45274;-60
2022/10/28 10:29:29;;;;;;;;;8.75;8.75;;;;;22.02;54.22;101430.47;4942882;28;45196;-60
2022/10/28 10:32:15;;;;;;;;;11.50;8.25;;;;;22.10;54.25;101438.16;4942872;28;45291;-60
2022/10/28 10:34:52;;;;;;;;;8.50;8.00;;;;;22.13;54.62;101418.38;4942613;28;45448;-61
2022/10/28 10:37:20;;;;;;;;;5.00;2.75;;;;;22.21;54.24;101414.34;4942714;28;46210;-60
2022/10/28 10:40:18;;;;;;;;;12.25;10.25;;;;;22.27;54.26;101425.69;4942130;28;45255;-60
2022/10/28 10:42:44;;;;;;;;;11.25;9.50;;;;;22.35;54.36;101426.13;4941982;28;45438;-60
2022/10/28 10:45:30;;;;;;;;;11.25;9.00;;;;;22.42;53.98;101429.41;4941091;28;45330;-60
2022/10/28 10:48:13;;;;;;;;;9.25;8.25;;;;;22.49;53.88;101434.34;4941929;28;45211;-61
2022/10/28 10:50:41;;;;;;;;;7.50;6.75;;;;;22.51;54.07;101440.47;4942459;28;45223;-61
2022/10/28 10:53:18;;;;;;;;;12.00;9.25;;;;;22.60;54.22;101459.66;4942916;28;45366;-62
2022/10/28 10:55:50;;;;;;;;;14.00;12.25;;;;;22.62;53.93;101450.59;4941130;28;45436;-61
2022/10/28 10:58:19;;;;;;;;;12.50;10.25;;;;;22.75;53.90;101460.66;4925148;28;46092;-62
2022/10/28 11:00:53;;;;;;;;;9.50;7.50;;;;;22.84;53.74;101465.50;4942343;28;45265;-61
2022/10/28 11:03:27;;;;;;;;;14.50;9.00;;;;;22.91;53.96;101468.75;4942534;28;45367;-61
2022/10/28 11:05:58;;;;;;;;;11.50;8.50;;;;;22.91;53.89;101461.56;4942163;28;45457;-61
2022/10/28 11:08:31;;;;;;;;;10.00;7.50;;;;;23.04;53.77;101467.97;4942416;28;45622;-63
2022/10/28 11:11:10;;;;;;;;;8.00;8.00;;;;;23.09;53.84;101465.00;4942211;28;45321;-61
2022/10/28 11:13:36;;;;;;;;;10.75;8.00;;;;;23.20;53.77;101473.34;4941975;28;45595;-61
2022/10/28 11:16:15;;;;;;;;;11.00;9.75;;;;;23.27;54.06;101462.28;4942294;28;45361;-61
2022/10/28 11:18:49;;;;;;;;;14.25;10.75;;;;;23.37;53.35;101464.38;4941892;28;45963;-61
2022/10/28 11:21:36;;;;;;;;;15.25;12.50;;;;;23.46;53.56;101472.84;4934606;28;45319;-61
2022/10/28 11:24:34;;;;;;;;;10.75;8.50;;;;;23.48;53.88;101476.31;4942272;28;45449;-61
2022/10/28 11:27:14;;;;;;;;;10.50;8.50;;;;;23.64;53.79;101487.03;4940238;28;45588;-61
2022/10/28 11:29:40;;;;;;;;;13.50;7.75;;;;;23.70;53.48;101482.16;4941812;28;45274;-61
2022/10/28 11:32:14;;;;;;;;;11.00;10.00;;;;;23.82;53.37;101485.97;4942131;28;45223;-61
2022/10/28 11:34:40;;;;;;;;;12.25;8.00;;;;;23.89;53.50;101486.47;4942125;28;45163;-62